createdAt,value
2022-10-07T00:00:29.398Z,8.02
2022-10-07T00:03:31.854Z,13.15
2022-10-07T00:06:33.926Z,15.20
2022-10-07T00:09:35.973Z,13.65
2022-10-07T00:12:38.016Z,15.75
2022-10-07T00:15:40.078Z,14.25
2022-10-07T00:18:42.315Z,7.78
2022-10-07T00:21:44.308Z,11.40
2022-10-07T00:24:46.277Z,9.13
2022-10-07T00:27:50.385Z,11.80
2022-10-07T00:31:04.132Z,10.63
2022-10-07T00:34:07.404Z,8.73
2022-10-07T00:37:09.553Z,10.80
2022-10-07T00:40:13.619Z,12.32
2022-10-07T00:43:31.997Z,10.88
2022-10-07T00:46:38.023Z,12.35
2022-10-07T00:49:48.423Z,16.63
2022-10-07T00:53:01.222Z,14.93
2022-10-07T00:56:05.176Z,17.05
2022-10-07T00:59:08.078Z,15.30
2022-10-07T01:02:10.241Z,15.52
2022-10-07T01:05:14.382Z,15.27
2022-10-07T01:08:20.023Z,16.42
2022-10-07T01:11:46.676Z,19.02
2022-10-07T01:15:08.074Z,12.48
2022-10-07T01:18:16.075Z,8.98
2022-10-07T01:21:17.959Z,19.27
2022-10-07T01:24:22.505Z,19.48
2022-10-07T01:27:27.710Z,9.00
2022-10-07T01:30:33.602Z,8.05
2022-10-07T01:33:39.320Z,7.75
2022-10-07T01:36:43.443Z,12.13
2022-10-07T01:39:57.283Z,8.15
2022-10-07T01:42:59.832Z,9.52
2022-10-07T01:46:03.988Z,15.93
2022-10-07T01:49:07.350Z,9.13
2022-10-07T01:52:28.267Z,11.07
2022-10-07T01:55:49.601Z,6.97
2022-10-07T01:59:08.167Z,10.70
2022-10-07T02:02:19.048Z,7.90
2022-10-07T02:05:42.963Z,8.27
2022-10-07T02:08:54.334Z,10.27
2022-10-07T02:12:05.899Z,11.32
2022-10-07T02:15:22.436Z,9.38
2022-10-07T02:18:27.589Z,15.07
2022-10-07T02:21:34.518Z,10.50
2022-10-07T02:24:39.562Z,13.40
2022-10-07T02:27:47.792Z,16.30
2022-10-07T02:30:55.866Z,11.05
2022-10-07T02:34:01.265Z,15.48
2022-10-07T02:37:11.719Z,18.20
2022-10-07T02:40:14.067Z,14.80
2022-10-07T02:43:37.517Z,9.65
2022-10-07T02:46:53.999Z,9.38
2022-10-07T02:50:01.384Z,10.95
2022-10-07T02:53:06.356Z,12.45
2022-10-07T02:56:08.932Z,8.02
2022-10-07T02:59:13.040Z,17.67
2022-10-07T03:02:25.926Z,6.80
2022-10-07T03:05:29.794Z,10.00
2022-10-07T03:08:36.639Z,7.25
2022-10-07T03:11:39.778Z,10.90
2022-10-07T03:14:41.924Z,9.88
2022-10-07T03:17:44.612Z,12.35
2022-10-07T03:20:46.995Z,12.35
2022-10-07T03:23:54.087Z,16.40
2022-10-07T03:26:59.495Z,10.18
2022-10-07T03:30:02.467Z,10.65
2022-10-07T03:33:04.918Z,12.95
2022-10-07T03:36:08.465Z,9.65
2022-10-07T03:39:12.066Z,8.00
2022-10-07T03:42:14.543Z,19.73
2022-10-07T03:45:19.587Z,13.48
2022-10-07T03:48:21.991Z,10.85
2022-10-07T03:51:24.562Z,11.70
2022-10-07T03:54:26.945Z,10.35
2022-10-07T03:57:47.783Z,13.18
2022-10-07T04:00:50.723Z,19.75
2022-10-07T04:03:53.525Z,11.00
2022-10-07T04:06:55.724Z,13.13
2022-10-07T04:09:58.651Z,19.38
2022-10-07T04:13:01.265Z,16.13
2022-10-07T04:16:08.634Z,11.25
2022-10-07T04:19:11.266Z,24.02
2022-10-07T04:22:13.392Z,14.55
2022-10-07T04:25:33.780Z,11.27
2022-10-07T04:28:40.538Z,11.93
2022-10-07T04:31:46.586Z,26.75
2022-10-07T04:34:51.654Z,12.98
2022-10-07T04:37:55.049Z,16.98
2022-10-07T04:41:04.308Z,19.40
2022-10-07T04:44:06.761Z,18.10
2022-10-07T04:47:14.735Z,16.58
2022-10-07T04:50:17.512Z,16.33
2022-10-07T04:53:22.755Z,24.20
2022-10-07T04:56:28.545Z,16.13
2022-10-07T04:59:31.794Z,12.60
2022-10-07T05:02:35.300Z,24.73
2022-10-07T05:05:41.901Z,18.25
2022-10-07T05:08:44.468Z,17.30
2022-10-07T05:11:49.321Z,16.92
2022-10-07T05:14:54.699Z,14.15
2022-10-07T05:17:57.642Z,20.58
2022-10-07T05:21:05.727Z,16.40
2022-10-07T05:24:09.398Z,18.52
2022-10-07T05:27:14.415Z,11.60
2022-10-07T05:30:17.104Z,16.63
2022-10-07T05:33:20.455Z,15.10
2022-10-07T05:36:24.476Z,23.85
2022-10-07T05:39:31.068Z,26.17
2022-10-07T05:42:40.409Z,15.63
2022-10-07T05:45:43.679Z,20.13
2022-10-07T05:48:49.746Z,21.70
2022-10-07T05:51:54.338Z,21.48
2022-10-07T05:54:57.888Z,19.20
2022-10-07T05:58:01.247Z,17.65
2022-10-07T06:01:13.719Z,18.35
2022-10-07T06:04:16.601Z,18.35
2022-10-07T06:07:28.327Z,16.95
2022-10-07T06:10:52.746Z,16.45
2022-10-07T06:13:55.684Z,18.77
2022-10-07T06:16:58.648Z,15.43
2022-10-07T06:20:01.260Z,19.98
2022-10-07T06:23:05.312Z,20.17
2022-10-07T06:26:10.672Z,21.65
2022-10-07T06:29:13.360Z,19.88
2022-10-07T06:32:15.531Z,11.75
2022-10-07T06:35:19.073Z,14.90
2022-10-07T06:38:22.818Z,10.50
2022-10-07T06:41:25.407Z,12.50
2022-10-07T06:44:39.478Z,19.42
2022-10-07T06:47:44.550Z,18.48
2022-10-07T06:50:53.744Z,11.93
2022-10-07T06:54:00.823Z,18.70
2022-10-07T06:57:15.435Z,14.05
2022-10-07T07:00:25.624Z,13.98
2022-10-07T07:03:30.347Z,16.30
2022-10-07T07:06:41.639Z,15.48
2022-10-07T07:09:45.305Z,15.57
2022-10-07T07:12:47.792Z,12.45
2022-10-07T07:16:00.245Z,18.40
2022-10-07T07:19:08.955Z,9.27
2022-10-07T07:22:12.123Z,10.88
2022-10-07T07:25:16.429Z,15.63
2022-10-07T07:28:19.641Z,10.43
2022-10-07T07:31:21.950Z,9.57
2022-10-07T07:34:24.500Z,12.63
2022-10-07T07:37:29.680Z,8.48
2022-10-07T07:40:32.611Z,5.10
2022-10-07T07:43:34.703Z,7.32
2022-10-07T07:46:41.643Z,9.45
2022-10-07T07:49:44.138Z,7.78
2022-10-07T07:52:57.112Z,7.55
2022-10-07T07:55:59.604Z,9.55
2022-10-07T07:59:04.739Z,17.73
2022-10-07T08:02:08.327Z,11.43
2022-10-07T08:05:13.381Z,9.95
2022-10-07T08:08:17.287Z,8.18
2022-10-07T08:11:20.793Z,12.75
2022-10-07T08:14:24.234Z,11.60
2022-10-07T08:17:29.786Z,9.20
2022-10-07T08:20:32.906Z,10.70
2022-10-07T08:23:36.532Z,8.43
2022-10-07T08:26:38.957Z,7.75
2022-10-07T08:29:43.820Z,6.50
2022-10-07T08:32:46.239Z,9.55
2022-10-07T08:36:07.742Z,8.23
2022-10-07T08:39:10.871Z,8.40
2022-10-07T08:42:23.767Z,14.82
2022-10-07T08:45:31.974Z,7.68
2022-10-07T08:48:39.028Z,10.35
2022-10-07T08:52:10.676Z,15.75
2022-10-07T08:55:28.286Z,8.80
2022-10-07T08:58:33.257Z,8.70
2022-10-07T09:01:35.418Z,14.90
2022-10-07T09:05:11.574Z,7.85
2022-10-07T09:08:27.993Z,8.93
2022-10-07T09:11:32.975Z,9.27
2022-10-07T09:14:39.391Z,9.77
2022-10-07T09:17:52.680Z,8.05
2022-10-07T09:20:56.603Z,9.30
2022-10-07T09:24:15.360Z,12.30
2022-10-07T09:27:23.425Z,12.48
2022-10-07T09:30:28.847Z,9.75
2022-10-07T09:33:31.816Z,7.65
2022-10-07T09:36:54.639Z,8.18
2022-10-07T09:40:21.382Z,7.95
2022-10-07T09:43:26.516Z,10.93
2022-10-07T09:46:41.409Z,11.75
2022-10-07T09:49:49.040Z,11.90
2022-10-07T09:52:56.069Z,8.47
2022-10-07T09:55:59.104Z,9.98
2022-10-07T09:59:24.336Z,11.50
2022-10-07T10:02:27.352Z,6.30
2022-10-07T10:05:32.830Z,7.38
2022-10-07T10:08:41.187Z,12.13
2022-10-07T10:14:50.584Z,5.03
2022-10-07T10:17:54.954Z,7.90
2022-10-07T10:21:14.061Z,10.68
2022-10-07T10:24:16.463Z,10.20
2022-10-07T10:27:26.677Z,7.47
2022-10-07T10:30:30.435Z,7.35
2022-10-07T10:34:17.145Z,7.32
2022-10-07T10:37:38.396Z,9.57
2022-10-07T10:40:48.331Z,4.55
2022-10-07T10:44:20.797Z,7.07
2022-10-07T10:47:38.270Z,4.53
2022-10-07T10:50:42.871Z,5.50
2022-10-07T10:54:13.149Z,6.78
2022-10-07T10:57:24.907Z,9.13
2022-10-07T11:00:35.115Z,5.00
2022-10-07T11:03:37.495Z,6.95
2022-10-07T11:06:44.670Z,9.15
2022-10-07T11:09:56.734Z,4.38
2022-10-07T11:13:12.068Z,5.25
2022-10-07T11:16:19.597Z,4.57
2022-10-07T11:19:36.277Z,8.05
2022-10-07T11:22:43.721Z,4.00
2022-10-07T11:25:54.163Z,7.13
2022-10-07T11:29:00.111Z,4.00
2022-10-07T11:32:11.075Z,6.20
2022-10-07T11:35:25.947Z,5.63
2022-10-07T11:38:41.768Z,7.07
2022-10-07T11:41:54.220Z,7.15
2022-10-07T11:45:07.402Z,11.75
2022-10-07T11:48:17.691Z,6.05
2022-10-07T11:51:25.393Z,4.20
2022-10-07T11:54:32.252Z,7.05
2022-10-07T11:57:37.615Z,10.32
2022-10-07T12:00:40.573Z,13.80
2022-10-07T12:03:42.556Z,9.10
2022-10-07T12:07:23.306Z,6.53
2022-10-07T12:10:32.624Z,10.57
2022-10-07T12:13:41.788Z,7.88
2022-10-07T12:16:55.401Z,8.13
2022-10-07T12:20:35.766Z,5.25
2022-10-07T12:23:41.081Z,6.75
2022-10-07T12:26:56.806Z,8.32
2022-10-07T12:30:02.924Z,6.15
2022-10-07T12:33:26.047Z,5.93
2022-10-07T12:36:28.846Z,5.00
2022-10-07T12:39:37.021Z,4.63
2022-10-07T12:42:48.383Z,7.47
2022-10-07T12:45:51.762Z,5.15
2022-10-07T12:49:31.131Z,7.97
2022-10-07T12:52:33.662Z,3.83
2022-10-07T12:55:39.338Z,5.40
2022-10-07T12:59:14.241Z,6.03
2022-10-07T13:02:16.471Z,9.90
2022-10-07T13:05:51.093Z,10.88
2022-10-07T13:08:56.039Z,7.85
2022-10-07T13:12:13.404Z,7.88
2022-10-07T13:15:34.806Z,12.23
2022-10-07T13:18:55.498Z,8.73
2022-10-07T13:22:10.320Z,5.93
2022-10-07T13:25:14.332Z,3.67
2022-10-07T13:28:20.261Z,4.72
2022-10-07T13:31:24.257Z,5.13
2022-10-07T13:34:28.359Z,9.52
2022-10-07T13:37:37.978Z,17.63
2022-10-07T13:40:40.160Z,6.32
2022-10-07T13:43:44.654Z,7.68
2022-10-07T13:46:58.611Z,5.57
2022-10-07T13:50:02.557Z,7.20
2022-10-07T13:53:04.598Z,11.18
2022-10-07T13:56:06.692Z,12.75
2022-10-07T13:59:19.397Z,9.43
2022-10-07T14:02:21.895Z,15.93
2022-10-07T14:05:28.838Z,7.50
2022-10-07T14:08:31.586Z,9.07
2022-10-07T14:11:35.506Z,8.13
2022-10-07T14:14:46.015Z,17.02
2022-10-07T14:17:54.078Z,5.00
2022-10-07T14:21:17.769Z,7.90
2022-10-07T14:24:20.838Z,9.57
2022-10-07T14:27:39.669Z,11.70
2022-10-07T14:31:01.770Z,6.57
2022-10-07T14:34:35.235Z,7.35
2022-10-07T14:37:37.340Z,14.55
2022-10-07T14:40:39.850Z,7.55
2022-10-07T14:43:45.128Z,11.75
2022-10-07T14:46:47.553Z,7.22
2022-10-07T14:49:53.989Z,12.20
2022-10-07T14:52:56.024Z,12.90
2022-10-07T14:55:59.810Z,7.90
2022-10-07T14:59:03.043Z,12.93
2022-10-07T15:02:05.229Z,11.57
2022-10-07T15:05:08.044Z,10.85
2022-10-07T15:08:13.466Z,12.20
2022-10-07T15:11:20.612Z,16.40
2022-10-07T15:14:22.595Z,8.90
2022-10-07T15:17:25.657Z,9.75
2022-10-07T15:20:30.296Z,13.55
2022-10-07T15:23:32.378Z,8.35
2022-10-07T15:26:34.329Z,9.43
2022-10-07T15:29:37.976Z,6.75
2022-10-07T15:32:41.189Z,8.10
2022-10-07T15:35:48.330Z,12.15
2022-10-07T15:38:51.576Z,9.75
2022-10-07T15:41:54.230Z,9.93
2022-10-07T15:44:57.079Z,12.02
2022-10-07T15:48:00.658Z,15.38
2022-10-07T15:51:05.031Z,9.23
2022-10-07T15:54:07.727Z,13.15
2022-10-07T15:57:10.478Z,12.13
2022-10-07T16:00:15.759Z,9.57
2022-10-07T16:03:17.916Z,12.75
2022-10-07T16:06:25.722Z,14.27
2022-10-07T16:09:27.993Z,7.07
2022-10-07T16:12:30.179Z,9.55
2022-10-07T16:18:54.998Z,8.00
2022-10-07T16:21:57.167Z,14.45
2022-10-07T16:24:59.657Z,13.73
2022-10-07T16:28:20.524Z,11.85
2022-10-07T16:31:22.700Z,11.98
2022-10-07T16:34:25.197Z,10.30
2022-10-07T16:37:28.331Z,8.25
2022-10-07T16:40:30.428Z,10.27
2022-10-07T16:43:34.867Z,13.48
2022-10-07T16:46:39.316Z,8.27
2022-10-07T16:49:43.841Z,8.88
2022-10-07T16:52:48.062Z,9.38
2022-10-07T16:55:50.426Z,14.02
2022-10-07T16:58:58.142Z,9.10
2022-10-07T17:02:03.339Z,14.32
2022-10-07T17:05:06.059Z,9.38
2022-10-07T17:08:08.389Z,12.05
2022-10-07T17:11:31.790Z,15.10
2022-10-07T17:14:34.021Z,7.13
2022-10-07T17:17:36.284Z,10.55
2022-10-07T17:20:40.462Z,10.43
2022-10-07T17:23:42.885Z,10.60
2022-10-07T17:26:46.200Z,14.25
2022-10-07T17:29:48.742Z,8.18
2022-10-07T17:32:54.481Z,12.40
2022-10-07T17:36:07.722Z,11.70
2022-10-07T17:39:11.532Z,14.30
2022-10-07T17:42:16.240Z,24.48
2022-10-07T17:45:18.360Z,18.60
2022-10-07T17:48:21.106Z,14.98
2022-10-07T17:51:28.005Z,14.15
2022-10-07T17:54:30.289Z,13.20
2022-10-07T17:57:33.296Z,9.82
2022-10-07T18:00:35.549Z,14.18
2022-10-07T18:06:56.440Z,19.85
2022-10-07T18:09:58.634Z,19.63
2022-10-07T18:13:19.414Z,15.60
2022-10-07T18:16:22.467Z,15.77
2022-10-07T18:19:31.180Z,28.60
2022-10-07T18:22:35.204Z,14.63
2022-10-07T18:25:38.775Z,18.77
2022-10-07T18:28:41.930Z,18.10
2022-10-07T18:31:46.435Z,17.35
2022-10-07T18:34:51.916Z,21.48
2022-10-07T18:37:54.075Z,22.05
2022-10-07T18:41:00.344Z,19.52
2022-10-07T18:44:02.539Z,21.50
2022-10-07T18:47:05.238Z,18.75
2022-10-07T18:50:07.921Z,20.83
2022-10-07T18:53:10.281Z,21.23
2022-10-07T18:56:20.932Z,27.48
2022-10-07T18:59:23.195Z,27.48
2022-10-07T19:02:25.449Z,19.95
2022-10-07T19:05:33.622Z,18.33
2022-10-07T19:08:37.124Z,24.35
2022-10-07T19:11:42.730Z,23.50
2022-10-07T19:14:44.875Z,21.75
2022-10-07T19:17:48.608Z,24.95
2022-10-07T19:20:58.478Z,19.58
2022-10-07T19:24:03.766Z,23.73
2022-10-07T19:27:08.091Z,30.48
2022-10-07T19:30:11.313Z,31.10
2022-10-07T19:33:13.612Z,27.00
2022-10-07T19:36:19.743Z,25.40
2022-10-07T19:39:23.125Z,20.05
2022-10-07T19:42:27.323Z,25.55
2022-10-07T19:45:29.596Z,21.30
2022-10-07T19:48:33.719Z,23.80
2022-10-07T19:51:39.745Z,19.75
2022-10-07T19:54:45.430Z,20.30
2022-10-07T19:57:48.282Z,28.58
2022-10-07T20:00:50.895Z,16.48
2022-10-07T20:03:59.227Z,31.15
2022-10-07T20:07:02.212Z,22.73
2022-10-07T20:10:04.583Z,26.40
2022-10-07T20:13:07.405Z,25.80
2022-10-07T20:16:17.424Z,20.27
2022-10-07T20:19:19.772Z,27.50
2022-10-07T20:22:22.169Z,19.77
2022-10-07T20:25:24.627Z,17.17
2022-10-07T20:28:27.550Z,20.65
2022-10-07T20:31:33.011Z,23.90
2022-10-07T20:34:37.980Z,21.33
2022-10-07T20:37:40.303Z,24.67
2022-10-07T20:41:01.062Z,19.70
2022-10-07T20:44:04.301Z,19.63
2022-10-07T20:47:08.900Z,21.50
2022-10-07T20:50:11.153Z,19.48
2022-10-07T20:53:14.049Z,18.92
2022-10-07T20:56:17.028Z,20.48
2022-10-07T20:59:19.316Z,18.38
2022-10-07T21:02:25.003Z,20.98
2022-10-07T21:05:29.684Z,17.15
2022-10-07T21:08:31.963Z,25.85
2022-10-07T21:11:34.939Z,21.05
2022-10-07T21:14:37.596Z,17.30
2022-10-07T21:17:40.969Z,22.08
2022-10-07T21:20:56.718Z,16.65
2022-10-07T21:24:00.789Z,20.52
2022-10-07T21:27:05.156Z,16.88
2022-10-07T21:30:11.626Z,16.42
2022-10-07T21:33:13.790Z,27.25
2022-10-07T21:36:18.729Z,24.80
2022-10-07T21:39:23.872Z,20.83
2022-10-07T21:42:26.579Z,24.58
2022-10-07T21:45:28.835Z,20.95
2022-10-07T21:48:31.839Z,23.25
2022-10-07T21:51:36.795Z,21.55
2022-10-07T21:54:40.229Z,19.48
2022-10-07T21:57:42.960Z,18.80
2022-10-07T22:00:45.044Z,20.45
2022-10-07T22:03:48.539Z,18.83
2022-10-07T22:07:09.261Z,26.58
2022-10-07T22:10:11.495Z,23.35
2022-10-07T22:13:14.620Z,19.58
2022-10-07T22:16:18.508Z,19.63
2022-10-07T22:19:20.969Z,26.15
2022-10-07T22:22:24.015Z,15.45
2022-10-07T22:25:26.102Z,17.50
2022-10-07T22:28:28.426Z,17.25
2022-10-07T22:31:32.342Z,15.13
2022-10-07T22:34:53.411Z,22.23
2022-10-07T22:37:57.498Z,16.58
2022-10-07T22:41:08.232Z,16.02
2022-10-07T22:44:11.557Z,18.55
2022-10-07T22:47:15.191Z,18.17
2022-10-07T22:50:17.760Z,18.85
2022-10-07T22:53:21.687Z,26.05
2022-10-07T22:56:26.725Z,22.60
2022-10-07T22:59:28.802Z,16.90
2022-10-07T23:02:30.963Z,19.48
2022-10-07T23:05:39.442Z,16.70
2022-10-07T23:08:43.307Z,14.13
2022-10-07T23:11:47.104Z,16.67
2022-10-07T23:14:49.105Z,19.90
2022-10-07T23:17:51.379Z,16.00
2022-10-07T23:21:03.973Z,17.42
2022-10-07T23:24:20.458Z,21.05
2022-10-07T23:27:23.868Z,16.75
2022-10-07T23:30:27.970Z,19.17
2022-10-07T23:33:31.619Z,18.10
2022-10-07T23:36:40.610Z,21.85
2022-10-07T23:39:44.730Z,32.22
2022-10-07T23:42:46.919Z,16.50
2022-10-07T23:45:51.354Z,21.30
2022-10-07T23:48:56.023Z,20.58
2022-10-07T23:51:58.331Z,22.15
2022-10-07T23:55:00.461Z,15.68
2022-10-07T23:58:03.097Z,18.83
